Itaituba Airport
SBIH : now visible

Airfield :











YOU CAN JOIN US ON...

 
LOGIN :

Register | Disclaimer

   EN    FR    IT 

 









Legend :    VFR   Marginal VFR   IFR   Intensive IFR   Very Intensive IFR
Visi :
Ceiling :
>= 8 km
>= 3000ft
5 to 8 km
1000 to 3000 ft
1500m to 5 km
500 to 1000 ft
800 to 1500m
200 to 500 ft
< 800m
< 200 ft
Symbols :   Thunderstorms  Fog  Heavy snow  Heavy precipitations  Wind > 20 kt






- Airport Elevation : 110 ft
- IATA code : ITB


SBIH - Itaituba

CURRENT METAR :
  • 061700Z 06010KT 9999 FEW023 33/23 Q1009

EXPIRED METARs :
  • 061600Z 09008KT 9999 FEW023 33/25 Q1011
  • 061500Z 09008KT 9999 SCT020 32/24 Q1012

TAF TAF SBIH
Valid from the 06 at 12:00 until the 07 at 00:00 UTC


060900Z 0612/0624 08005KT 9999 SCT015 TX32/0618Z TN28/0621Z
BECMG 0616/0618 12010KT SCT020 FEW025TCU
BECMG 0620/0622 06002KT SCT018 RMK PFV



MET'MAP, your aeronautical weather chart ! - Copyright ORBIFLY December 2007 - Disclaimer

ORBIFLY MET'MAP TEAM :

Programming & Development : Alexandra Zaïnal
Concept & original design : Baudouin d'Aumeries
Assistance for programming : Marc-Olivier Méhu
Technical & hardware support : Manuel Goepfert

Contact : metmap@orbifly.com




SOURCES & CREDITS :

   NOAA       Earth
Advisory